Time;durP1;ratioP1;P1;durP2;ratioP2;P2;SDS_P1;SDS_P2;PMS_P1;PMS_P2;Temp;Humidity;BMP_temperature;BMP_pressure;BME280_temperature;BME280_humidity;BME280_pressure;Samples;Min_cycle;Max_cycle;Signal;HPM_P1;HPM_P2
2022/11/02 00:02:20;;;;;;;4.83;2.37;;;;;;;;;;6184631;23;20233;-90
2022/11/02 00:04:49;;;;;;;3.00;2.40;;;;;;;;;;6160141;23;20211;-90
2022/11/02 00:07:17;;;;;;;7.43;1.63;;;;;;;;;;6159981;23;20271;-89
2022/11/02 00:09:46;;;;;;;7.40;2.17;;;;;;;;;;6185690;23;20171;-88
2022/11/02 00:12:14;;;;;;;6.50;1.70;;;;;;;;;;6184728;23;20182;-88
2022/11/02 00:14:45;;;;;;;6.27;2.03;;;;;;;;;;6184754;23;20241;-88
2022/11/02 00:17:20;;;;;;;5.53;2.57;;;;;;;;;;6160045;23;20175;-86
2022/11/02 00:19:48;;;;;;;4.10;2.27;;;;;;;;;;6184903;23;20182;-85
2022/11/02 00:22:16;;;;;;;8.97;2.40;;;;;;;;;;6159443;23;20257;-85
2022/11/02 00:24:45;;;;;;;10.23;2.33;;;;;;;;;;6159453;23;20177;-86
2022/11/02 00:27:13;;;;;;;10.67;2.43;;;;;;;;;;6159976;23;20186;-86
2022/11/02 00:29:42;;;;;;;5.70;1.87;;;;;;;;;;6185773;23;20167;-86
2022/11/02 00:32:12;;;;;;;3.30;1.53;;;;;;;;;;6185566;23;20171;-86
2022/11/02 00:34:40;;;;;;;7.33;2.13;;;;;;;;;;6159697;23;20194;-85
2022/11/02 00:37:09;;;;;;;9.00;2.47;;;;;;;;;;6184569;23;20202;-86
2022/11/02 00:39:37;;;;;;;12.67;3.37;;;;;;;;;;6159794;23;20205;-86
2022/11/02 00:42:06;;;;;;;12.13;4.33;;;;;;;;;;6159385;23;20185;-86
2022/11/02 00:44:34;;;;;;;6.73;2.90;;;;;;;;;;6159295;23;20175;-86
2022/11/02 00:47:02;;;;;;;10.23;3.37;;;;;;;;;;6184140;23;20171;-86
2022/11/02 00:49:32;;;;;;;11.00;3.40;;;;;;;;;;6184172;23;20186;-86
2022/11/02 00:52:01;;;;;;;6.83;2.73;;;;;;;;;;6159939;23;20178;-86
2022/11/02 00:54:29;;;;;;;10.23;3.43;;;;;;;;;;6185749;23;20185;-86
2022/11/02 00:56:58;;;;;;;6.67;2.40;;;;;;;;;;6159737;23;20175;-86
2022/11/02 00:59:26;;;;;;;8.53;2.40;;;;;;;;;;6159454;23;20182;-86
2022/11/02 01:01:54;;;;;;;2.73;1.33;;;;;;;;;;6184118;23;20178;-86
2022/11/02 01:04:23;;;;;;;8.50;2.60;;;;;;;;;;6158979;23;20229;-86
2022/11/02 01:06:53;;;;;;;6.70;2.93;;;;;;;;;;6159526;23;20167;-86
2022/11/02 01:09:21;;;;;;;3.37;1.97;;;;;;;;;;6159718;23;20178;-86
2022/11/02 01:11:50;;;;;;;7.10;2.47;;;;;;;;;;6184098;23;20178;-87
2022/11/02 01:14:18;;;;;;;5.07;1.83;;;;;;;;;;6159633;23;20171;-87
2022/11/02 01:16:46;;;;;;;4.43;2.27;;;;;;;;;;6159233;23;20226;-87
2022/11/02 01:19:15;;;;;;;2.40;1.23;;;;;;;;;;6185552;23;20178;-87
2022/11/02 01:21:43;;;;;;;13.63;3.47;;;;;;;;;;6184024;23;20179;-87
2022/11/02 01:24:13;;;;;;;7.07;1.63;;;;;;;;;;6159218;23;20171;-87
2022/11/02 01:26:42;;;;;;;7.97;2.37;;;;;;;;;;6184547;23;20194;-88
2022/11/02 01:29:17;;;;;;;5.10;2.53;;;;;;;;;;6161384;23;20178;-88
2022/11/02 01:31:47;;;;;;;9.13;2.77;;;;;;;;;;6186087;23;20179;-88
2022/11/02 01:34:15;;;;;;;3.53;1.70;;;;;;;;;;6161122;23;20194;-88
2022/11/02 01:36:45;;;;;;;10.47;3.53;;;;;;;;;;6160802;23;20199;-88
2022/11/02 01:39:15;;;;;;;8.60;2.97;;;;;;;;;;6161276;23;20175;-88
2022/11/02 01:41:43;;;;;;;4.23;1.53;;;;;;;;;;6186372;23;20179;-88
2022/11/02 01:44:27;;;;;;;10.27;2.80;;;;;;;;;;6160978;23;20201;-89
2022/11/02 01:46:56;;;;;;;12.83;2.87;;;;;;;;;;6185926;23;20175;-87
2022/11/02 01:49:26;;;;;;;14.07;3.73;;;;;;;;;;6187605;23;20204;-88
2022/11/02 01:51:57;;;;;;;10.13;3.37;;;;;;;;;;6160984;23;20225;-88
2022/11/02 01:54:36;;;;;;;10.67;3.77;;;;;;;;;;6161442;23;20185;-88
2022/11/02 01:57:20;;;;;;;9.30;2.27;;;;;;;;;;6146920;23;20206;-88
2022/11/02 01:59:51;;;;;;;9.50;3.27;;;;;;;;;;6161498;23;20178;-87
2022/11/02 02:02:20;;;;;;;9.70;2.50;;;;;;;;;;6160752;23;20174;-87
2022/11/02 02:04:51;;;;;;;9.17;2.97;;;;;;;;;;6160504;23;20299;-87
2022/11/02 02:07:23;;;;;;;12.17;2.43;;;;;;;;;;6186834;23;20175;-88
2022/11/02 02:09:53;;;;;;;11.53;3.03;;;;;;;;;;6161644;23;20232;-88
2022/11/02 02:12:22;;;;;;;6.93;2.63;;;;;;;;;;6160778;23;20234;-88
2022/11/02 02:14:50;;;;;;;8.67;2.70;;;;;;;;;;6185774;23;20249;-88
2022/11/02 02:17:27;;;;;;;8.00;3.40;;;;;;;;;;6187001;23;20187;-87
2022/11/02 02:19:59;;;;;;;10.77;3.37;;;;;;;;;;6160910;23;20177;-88
2022/11/02 02:22:45;;;;;;;10.23;4.17;;;;;;;;;;6187045;23;20182;-88
2022/11/02 02:25:25;;;;;;;13.70;4.20;;;;;;;;;;6186921;23;20171;-88
2022/11/02 02:28:04;;;;;;;12.67;4.70;;;;;;;;;;6161104;23;20239;-88
2022/11/02 02:30:35;;;;;;;14.97;3.87;;;;;;;;;;6160705;23;20188;-86
2022/11/02 02:33:06;;;;;;;13.43;4.60;;;;;;;;;;6186802;23;20167;-86
2022/11/02 02:35:39;;;;;;;10.67;2.90;;;;;;;;;;6160744;23;20203;-87
2022/11/02 02:38:11;;;;;;;3.73;1.77;;;;;;;;;;6160936;23;20174;-87
2022/11/02 02:40:42;;;;;;;12.70;4.50;;;;;;;;;;6160607;23;20178;-87
2022/11/02 02:43:14;;;;;;;6.20;2.73;;;;;;;;;;6186927;23;20225;-87
2022/11/02 02:45:44;;;;;;;10.77;2.20;;;;;;;;;;6161251;23;20229;-87
2022/11/02 02:48:15;;;;;;;9.20;2.30;;;;;;;;;;6185225;23;20212;-87
2022/11/02 02:50:46;;;;;;;2.27;1.07;;;;;;;;;;6160708;23;20178;-87
2022/11/02 02:53:15;;;;;;;7.13;2.37;;;;;;;;;;6160821;23;20176;-88
2022/11/02 02:55:45;;;;;;;13.20;3.97;;;;;;;;;;6160610;23;20205;-87
2022/11/02 02:58:17;;;;;;;9.10;3.60;;;;;;;;;;6160398;23;20171;-88
2022/11/02 03:00:46;;;;;;;10.53;2.97;;;;;;;;;;6160921;23;20179;-87
2022/11/02 03:03:17;;;;;;;18.20;4.17;;;;;;;;;;6185133;23;20202;-87
2022/11/02 03:05:56;;;;;;;12.57;3.33;;;;;;;;;;6160404;23;20307;-87
2022/11/02 03:08:24;;;;;;;1.07;0.80;;;;;;;;;;6186512;23;20166;-87
2022/11/02 03:10:57;;;;;;;5.80;1.77;;;;;;;;;;6185283;23;20210;-87
2022/11/02 03:13:36;;;;;;;3.33;1.97;;;;;;;;;;6186640;23;20199;-87
2022/11/02 03:16:08;;;;;;;3.93;2.67;;;;;;;;;;6160413;23;20214;-87
2022/11/02 03:18:42;;;;;;;16.60;3.13;;;;;;;;;;6160323;23;20230;-87
2022/11/02 03:21:15;;;;;;;8.97;2.60;;;;;;;;;;6160238;23;20186;-88
2022/11/02 03:23:50;;;;;;;11.43;2.33;;;;;;;;;;6160502;23;20222;-88
2022/11/02 03:26:22;;;;;;;5.60;2.10;;;;;;;;;;6160478;23;20181;-88
2022/11/02 03:28:57;;;;;;;5.47;2.17;;;;;;;;;;6186567;23;20193;-88
2022/11/02 03:31:32;;;;;;;3.77;1.90;;;;;;;;;;6160474;23;20179;-87
2022/11/02 03:34:04;;;;;;;10.47;3.37;;;;;;;;;;6160321;23;20174;-86
2022/11/02 03:36:34;;;;;;;7.10;1.97;;;;;;;;;;6184826;23;20237;-86
2022/11/02 03:39:06;;;;;;;10.20;2.43;;;;;;;;;;6160108;23;20183;-86
2022/11/02 03:41:35;;;;;;;6.43;2.07;;;;;;;;;;6159848;23;20198;-86
2022/11/02 03:44:07;;;;;;;11.30;3.43;;;;;;;;;;6159640;23;20171;-86
2022/11/02 03:46:38;;;;;;;10.50;3.37;;;;;;;;;;6160055;23;20171;-86
2022/11/02 03:49:07;;;;;;;8.10;2.80;;;;;;;;;;6184533;23;20174;-86
2022/11/02 03:51:38;;;;;;;0.40;0.40;;;;;;;;;;6185796;23;20175;-83
2022/11/02 03:54:09;;;;;;;0.47;0.47;;;;;;;;;;6184657;23;20179;-83
2022/11/02 03:56:40;;;;;;;0.40;0.40;;;;;;;;;;6185798;23;20218;-83
2022/11/02 03:59:10;;;;;;;0.50;0.50;;;;;;;;;;6186142;23;20195;-83
2022/11/02 04:01:39;;;;;;;6.23;2.03;;;;;;;;;;6184589;23;20189;-83
2022/11/02 04:04:08;;;;;;;2.80;1.27;;;;;;;;;;6185654;23;20289;-83
2022/11/02 04:06:37;;;;;;;5.90;2.83;;;;;;;;;;6184362;23;20171;-83
2022/11/02 04:09:06;;;;;;;6.67;2.73;;;;;;;;;;6184934;23;20233;-83
2022/11/02 04:14:40;;;;;;;2.63;1.63;;;;;;;;;;6185921;23;20171;-84
2022/11/02 04:19:55;;;;;;;13.53;2.70;;;;;;;;;;6159401;23;20170;-84
2022/11/02 04:25:17;;;;;;;6.60;2.63;;;;;;;;;;6185754;23;20198;-84
2022/11/02 04:27:47;;;;;;;3.67;1.70;;;;;;;;;;6159854;23;20178;-84
2022/11/02 04:30:17;;;;;;;11.10;2.50;;;;;;;;;;6159571;23;20203;-84
2022/11/02 04:35:33;;;;;;;8.30;1.80;;;;;;;;;;6185893;23;20175;-84
2022/11/02 04:40:49;;;;;;;10.30;4.20;;;;;;;;;;6159510;23;20178;-85
2022/11/02 04:43:18;;;;;;;11.33;1.87;;;;;;;;;;6159429;23;20171;-85
2022/11/02 04:45:48;;;;;;;5.07;1.53;;;;;;;;;;6184501;23;20175;-85
2022/11/02 04:48:16;;;;;;;6.47;2.00;;;;;;;;;;6159270;23;20191;-85
2022/11/02 04:50:44;;;;;;;4.63;2.13;;;;;;;;;;6159778;23;20175;-85
2022/11/02 04:53:13;;;;;;;7.47;2.03;;;;;;;;;;6159271;23;20179;-85
2022/11/02 04:55:41;;;;;;;2.53;1.40;;;;;;;;;;6159215;23;20175;-85
2022/11/02 04:58:09;;;;;;;6.50;2.47;;;;;;;;;;6185935;23;20274;-85
2022/11/02 05:00:38;;;;;;;6.23;1.90;;;;;;;;;;6159424;23;20179;-85
2022/11/02 05:03:09;;;;;;;6.37;2.53;;;;;;;;;;6161208;23;20195;-85
2022/11/02 05:05:40;;;;;;;8.90;3.07;;;;;;;;;;6187135;23;20199;-85
2022/11/02 05:08:08;;;;;;;10.13;1.97;;;;;;;;;;6161508;23;20229;-85
2022/11/02 05:10:36;;;;;;;3.87;1.77;;;;;;;;;;6187345;23;20179;-86
2022/11/02 05:13:05;;;;;;;8.40;2.17;;;;;;;;;;6161514;23;20245;-85
2022/11/02 05:15:33;;;;;;;5.77;1.60;;;;;;;;;;6187522;23;20175;-85
2022/11/02 05:18:02;;;;;;;2.97;1.73;;;;;;;;;;6161544;23;20186;-86
2022/11/02 05:20:32;;;;;;;6.67;2.07;;;;;;;;;;6161663;23;20171;-86
2022/11/02 05:23:01;;;;;;;3.20;1.80;;;;;;;;;;6186632;23;20233;-86
2022/11/02 05:25:30;;;;;;;9.67;1.70;;;;;;;;;;6161572;23;20234;-86
2022/11/02 05:27:58;;;;;;;4.97;2.97;;;;;;;;;;6161289;23;20178;-87
2022/11/02 05:30:26;;;;;;;2.80;1.53;;;;;;;;;;6161423;23;20175;-87
2022/11/02 05:32:56;;;;;;;4.90;2.57;;;;;;;;;;6187396;23;20179;-87
2022/11/02 05:35:25;;;;;;;8.80;2.70;;;;;;;;;;6161516;23;20176;-87
2022/11/02 05:37:56;;;;;;;6.57;2.07;;;;;;;;;;6186192;23;20253;-88
2022/11/02 05:40:25;;;;;;;5.50;1.80;;;;;;;;;;6186247;23;20175;-88
2022/11/02 05:42:59;;;;;;;3.57;1.70;;;;;;;;;;6187099;23;20210;-88
2022/11/02 05:45:27;;;;;;;5.47;1.80;;;;;;;;;;6187222;23;20183;-88
2022/11/02 05:47:56;;;;;;;3.73;1.97;;;;;;;;;;6161011;23;20229;-88
2022/11/02 05:50:24;;;;;;;7.90;2.50;;;;;;;;;;6161324;23;20226;-88
2022/11/02 05:52:53;;;;;;;3.37;1.70;;;;;;;;;;6187123;23;20178;-88
2022/11/02 05:55:23;;;;;;;2.80;1.80;;;;;;;;;;6185756;23;20245;-88
2022/11/02 05:57:52;;;;;;;7.33;2.07;;;;;;;;;;6161232;23;20191;-88
2022/11/02 06:00:21;;;;;;;5.80;1.80;;;;;;;;;;6187150;23;20218;-88
2022/11/02 06:02:50;;;;;;;6.67;2.00;;;;;;;;;;6186791;23;20233;-88
2022/11/02 06:05:18;;;;;;;6.90;1.97;;;;;;;;;;6185362;23;20202;-88
2022/11/02 06:07:47;;;;;;;9.33;3.00;;;;;;;;;;6185810;23;20217;-88
2022/11/02 06:10:15;;;;;;;2.50;1.60;;;;;;;;;;6186854;23;20171;-88
2022/11/02 06:12:45;;;;;;;4.00;2.17;;;;;;;;;;6187363;23;20175;-88
2022/11/02 06:15:14;;;;;;;7.90;1.73;;;;;;;;;;6161070;23;20175;-88
2022/11/02 06:17:43;;;;;;;14.37;4.13;;;;;;;;;;6160898;23;20215;-88
2022/11/02 06:20:12;;;;;;;2.10;1.77;;;;;;;;;;6160759;23;20269;-88
2022/11/02 06:22:40;;;;;;;1.83;1.10;;;;;;;;;;6186923;23;20266;-88
2022/11/02 06:25:09;;;;;;;2.63;1.50;;;;;;;;;;6160640;23;20225;-88
2022/11/02 06:27:38;;;;;;;5.67;0.97;;;;;;;;;;6161253;23;20181;-88
2022/11/02 06:30:14;;;;;;;2.33;1.03;;;;;;;;;;6185964;23;20200;-87
2022/11/02 06:32:47;;;;;;;3.47;1.77;;;;;;;;;;6185665;23;20238;-88
2022/11/02 06:35:17;;;;;;;10.13;1.73;;;;;;;;;;6160781;23;20190;-88
2022/11/02 06:37:46;;;;;;;6.17;2.47;;;;;;;;;;6160575;23;20186;-88
2022/11/02 06:40:15;;;;;;;9.47;2.43;;;;;;;;;;6162394;23;20267;-88
2022/11/02 06:42:43;;;;;;;6.17;1.70;;;;;;;;;;6186488;23;20183;-88
2022/11/02 06:45:33;;;;;;;6.90;2.83;;;;;;;;;;6161994;23;20203;-88
2022/11/02 06:48:02;;;;;;;5.87;1.23;;;;;;;;;;6161105;23;20171;-88
2022/11/02 06:50:30;;;;;;;4.43;1.47;;;;;;;;;;6186742;23;20245;-88
2022/11/02 06:52:58;;;;;;;5.53;2.27;;;;;;;;;;6187230;23;20210;-89
2022/11/02 06:55:27;;;;;;;6.97;1.20;;;;;;;;;;6161992;23;20206;-89
2022/11/02 06:57:56;;;;;;;3.43;1.47;;;;;;;;;;6162498;23;20262;-89
2022/11/02 07:00:24;;;;;;;11.23;2.30;;;;;;;;;;6187727;23;20186;-88
2022/11/02 07:03:01;;;;;;;12.50;2.40;;;;;;;;;;6163244;23;20178;-89
2022/11/02 07:05:31;;;;;;;6.93;1.77;;;;;;;;;;6163447;23;20214;-85
2022/11/02 07:08:00;;;;;;;4.80;2.20;;;;;;;;;;6162787;23;20234;-89
2022/11/02 07:10:29;;;;;;;5.13;1.90;;;;;;;;;;6164021;23;20291;-88
2022/11/02 07:12:58;;;;;;;9.03;2.13;;;;;;;;;;6189941;23;20253;-89
2022/11/02 07:15:26;;;;;;;4.20;1.90;;;;;;;;;;6163410;23;20184;-89
2022/11/02 07:17:55;;;;;;;4.47;2.47;;;;;;;;;;6163384;23;20225;-88
2022/11/02 07:20:26;;;;;;;2.73;1.33;;;;;;;;;;6163375;23;20179;-88
2022/11/02 07:22:55;;;;;;;3.27;1.50;;;;;;;;;;6188313;23;20278;-87
2022/11/02 07:25:24;;;;;;;5.73;2.03;;;;;;;;;;6187567;23;20179;-87
2022/11/02 07:27:53;;;;;;;2.20;2.03;;;;;;;;;;6188597;23;20178;-86
2022/11/02 07:30:21;;;;;;;7.83;1.93;;;;;;;;;;6189153;23;20226;-88
2022/11/02 07:32:49;;;;;;;4.63;1.80;;;;;;;;;;6189610;23;20168;-87
2022/11/02 07:35:18;;;;;;;2.90;1.07;;;;;;;;;;6188487;23;20241;-87
2022/11/02 07:37:58;;;;;;;5.60;1.43;;;;;;;;;;6163320;23;20264;-87
2022/11/02 07:40:27;;;;;;;8.17;3.03;;;;;;;;;;6163516;23;20269;-88
2022/11/02 07:42:56;;;;;;;4.63;2.43;;;;;;;;;;6163493;23;20242;-88
2022/11/02 07:45:28;;;;;;;9.23;2.10;;;;;;;;;;6188589;23;20207;-88
2022/11/02 07:47:56;;;;;;;11.53;2.07;;;;;;;;;;6188984;23;20178;-87
2022/11/02 07:50:26;;;;;;;4.53;1.60;;;;;;;;;;6163316;23;20179;-87
2022/11/02 07:52:55;;;;;;;6.33;1.90;;;;;;;;;;6162786;23;20234;-86
2022/11/02 07:55:26;;;;;;;5.87;1.83;;;;;;;;;;6163930;23;20181;-87
2022/11/02 07:57:56;;;;;;;6.47;2.30;;;;;;;;;;6163067;23;20175;-87
2022/11/02 08:00:27;;;;;;;6.57;2.10;;;;;;;;;;6163293;23;20230;-87
2022/11/02 08:03:07;;;;;;;4.60;1.53;;;;;;;;;;6163220;23;20179;-87
2022/11/02 08:05:37;;;;;;;7.73;1.20;;;;;;;;;;6163210;23;20211;-87
2022/11/02 08:08:08;;;;;;;6.40;1.90;;;;;;;;;;6163182;23;20230;-88
2022/11/02 08:10:38;;;;;;;5.37;1.90;;;;;;;;;;6163248;23;20243;-87
2022/11/02 08:13:08;;;;;;;5.80;1.43;;;;;;;;;;6163052;23;20171;-87
2022/11/02 08:15:36;;;;;;;2.50;1.20;;;;;;;;;;6162787;23;20171;-87
2022/11/02 08:18:06;;;;;;;4.40;1.20;;;;;;;;;;6162893;23;20245;-88
2022/11/02 08:20:36;;;;;;;6.17;2.50;;;;;;;;;;6187916;23;20256;-87
2022/11/02 08:23:06;;;;;;;3.87;1.93;;;;;;;;;;6188079;23;20199;-87
2022/11/02 08:25:35;;;;;;;4.87;1.23;;;;;;;;;;6162701;23;20183;-88
2022/11/02 08:28:06;;;;;;;4.67;1.40;;;;;;;;;;6188564;23;20181;-87
2022/11/02 08:30:36;;;;;;;2.17;1.10;;;;;;;;;;6162869;23;20183;-88
2022/11/02 08:33:05;;;;;;;1.87;1.07;;;;;;;;;;6163195;23;20193;-88
2022/11/02 08:35:35;;;;;;;2.10;1.17;;;;;;;;;;6163119;23;20181;-88
2022/11/02 08:38:13;;;;;;;1.90;0.80;;;;;;;;;;6188178;23;20171;-88
2022/11/02 08:40:43;;;;;;;3.50;1.60;;;;;;;;;;6160744;23;20198;-87
2022/11/02 08:43:16;;;;;;;4.87;2.00;;;;;;;;;;6184817;23;20179;-88
2022/11/02 08:45:47;;;;;;;4.97;1.30;;;;;;;;;;6162109;23;20175;-88
2022/11/02 08:48:37;;;;;;;4.03;1.10;;;;;;;;;;6160666;23;20186;-87
2022/11/02 08:51:08;;;;;;;3.33;1.10;;;;;;;;;;6161556;23;20188;-89
2022/11/02 08:53:51;;;;;;;5.87;2.30;;;;;;;;;;6165194;23;20218;-89
2022/11/02 08:56:30;;;;;;;5.50;1.37;;;;;;;;;;6186636;23;20183;-88
2022/11/02 08:59:01;;;;;;;7.67;2.30;;;;;;;;;;6185744;23;20309;-87
2022/11/02 09:01:31;;;;;;;2.53;1.30;;;;;;;;;;6185298;23;20179;-89
2022/11/02 09:04:00;;;;;;;0.77;0.77;;;;;;;;;;6185135;23;20199;-89
2022/11/02 09:06:29;;;;;;;2.93;0.90;;;;;;;;;;6185387;23;20274;-88
2022/11/02 09:08:58;;;;;;;6.97;2.10;;;;;;;;;;6180765;23;20175;-87
2022/11/02 09:11:28;;;;;;;4.13;1.57;;;;;;;;;;6183166;23;20257;-88
2022/11/02 09:13:59;;;;;;;6.03;1.23;;;;;;;;;;6152656;23;20183;-86
2022/11/02 09:16:31;;;;;;;4.67;1.60;;;;;;;;;;6150422;23;20190;-87
2022/11/02 09:19:07;;;;;;;5.73;1.80;;;;;;;;;;6158846;23;20183;-87
2022/11/02 09:21:38;;;;;;;6.23;1.50;;;;;;;;;;6185838;23;20179;-86
2022/11/02 09:24:11;;;;;;;3.47;2.00;;;;;;;;;;6160832;23;20204;-87
2022/11/02 09:26:50;;;;;;;5.00;1.93;;;;;;;;;;6182250;23;20198;-87
2022/11/02 09:29:21;;;;;;;3.17;1.50;;;;;;;;;;6179516;23;20272;-84
2022/11/02 09:31:53;;;;;;;2.57;1.83;;;;;;;;;;6156322;23;20184;-86
2022/11/02 09:34:22;;;;;;;4.80;1.67;;;;;;;;;;6155133;23;20176;-86
2022/11/02 09:36:52;;;;;;;6.03;1.63;;;;;;;;;;6155480;23;20192;-87
2022/11/02 09:39:25;;;;;;;2.97;1.47;;;;;;;;;;6155982;23;20195;-85
2022/11/02 09:42:02;;;;;;;3.97;1.97;;;;;;;;;;6154611;23;20179;-85
2022/11/02 09:44:37;;;;;;;5.13;1.50;;;;;;;;;;6176652;23;20190;-85
2022/11/02 09:47:10;;;;;;;7.37;2.13;;;;;;;;;;6153242;23;20179;-87
2022/11/02 09:50:03;;;;;;;4.90;1.77;;;;;;;;;;6156418;23;20175;-87
2022/11/02 09:52:36;;;;;;;5.40;2.23;;;;;;;;;;6157965;23;20182;-87
2022/11/02 09:55:07;;;;;;;4.03;1.53;;;;;;;;;;6180786;23;20183;-86
2022/11/02 09:57:37;;;;;;;4.70;2.60;;;;;;;;;;6160578;23;20183;-87
2022/11/02 10:00:09;;;;;;;2.63;1.77;;;;;;;;;;6160693;23;20218;-86
2022/11/02 10:02:48;;;;;;;6.03;2.63;;;;;;;;;;6159510;23;20241;-85
2022/11/02 10:05:29;;;;;;;3.40;1.43;;;;;;;;;;6184427;23;20212;-87
2022/11/02 10:08:04;;;;;;;2.40;0.80;;;;;;;;;;6182743;23;20186;-86
2022/11/02 10:10:35;;;;;;;5.17;1.70;;;;;;;;;;6155093;23;20184;-86
2022/11/02 10:13:15;;;;;;;3.90;1.80;;;;;;;;;;6155386;23;20207;-87
2022/11/02 10:15:49;;;;;;;3.80;1.40;;;;;;;;;;6154860;23;20184;-85
2022/11/02 10:18:23;;;;;;;5.67;1.90;;;;;;;;;;6182262;23;20180;-87
2022/11/02 10:21:02;;;;;;;1.90;1.27;;;;;;;;;;6156064;23;20197;-86
2022/11/02 10:23:37;;;;;;;7.00;2.00;;;;;;;;;;6156515;23;20249;-85
2022/11/02 10:26:06;;;;;;;8.27;2.10;;;;;;;;;;6181479;23;20184;-85
2022/11/02 10:28:38;;;;;;;5.23;2.53;;;;;;;;;;6157521;23;20176;-86
2022/11/02 10:31:18;;;;;;;2.17;2.07;;;;;;;;;;6154102;23;20180;-88
2022/11/02 10:34:23;;;;;;;2.27;0.90;;;;;;;;;;6162042;23;20208;-85
2022/11/02 10:37:01;;;;;;;1.17;1.10;;;;;;;;;;6163256;23;20187;-86
2022/11/02 10:39:41;;;;;;;2.00;1.47;;;;;;;;;;6179751;23;20177;-87
2022/11/02 10:42:20;;;;;;;2.10;1.73;;;;;;;;;;6156469;23;20187;-83
2022/11/02 10:45:04;;;;;;;0.93;0.93;;;;;;;;;;6180117;23;20185;-85
2022/11/02 10:47:35;;;;;;;0.97;0.97;;;;;;;;;;6156540;23;20178;-83
2022/11/02 10:50:28;;;;;;;3.50;1.43;;;;;;;;;;6184356;23;20187;-85
2022/11/02 10:53:04;;;;;;;4.27;1.80;;;;;;;;;;6183719;23;20202;-86
2022/11/02 10:56:00;;;;;;;0.43;0.43;;;;;;;;;;6181853;23;20192;-89
2022/11/02 10:58:35;;;;;;;1.30;0.90;;;;;;;;;;6156328;23;20267;-88
2022/11/02 11:01:15;;;;;;;4.60;1.67;;;;;;;;;;6156390;23;20193;-88
2022/11/02 11:03:55;;;;;;;5.13;1.43;;;;;;;;;;6158386;23;20225;-88
2022/11/02 11:06:31;;;;;;;1.63;1.53;;;;;;;;;;6186379;23;20210;-90
2022/11/02 11:09:06;;;;;;;2.50;1.53;;;;;;;;;;6160021;23;20179;-90
2022/11/02 11:11:39;;;;;;;1.30;1.13;;;;;;;;;;6156213;23;20221;-88
2022/11/02 11:14:16;;;;;;;2.77;1.63;;;;;;;;;;6160044;23;20186;-88
2022/11/02 11:17:16;;;;;;;3.77;1.60;;;;;;;;;;6156416;23;20218;-87
2022/11/02 11:20:05;;;;;;;5.77;1.83;;;;;;;;;;6158765;23;20186;-83
2022/11/02 11:22:42;;;;;;;0.50;0.50;;;;;;;;;;6162867;23;20268;-87
2022/11/02 11:25:37;;;;;;;2.97;1.33;;;;;;;;;;6162884;23;20269;-88
2022/11/02 11:28:22;;;;;;;6.50;1.60;;;;;;;;;;6163622;23;20186;-84
2022/11/02 11:31:05;;;;;;;1.70;1.10;;;;;;;;;;6161344;23;20178;-85
2022/11/02 11:33:42;;;;;;;1.80;1.03;;;;;;;;;;6159540;23;20189;-86
2022/11/02 11:36:14;;;;;;;1.80;0.63;;;;;;;;;;6159807;23;20258;-88
2022/11/02 11:38:47;;;;;;;2.67;1.30;;;;;;;;;;6158378;23;20186;-86
2022/11/02 11:41:20;;;;;;;2.00;0.90;;;;;;;;;;6158398;23;20202;-87
2022/11/02 11:43:50;;;;;;;1.07;0.80;;;;;;;;;;6161255;23;20202;-87
2022/11/02 11:46:21;;;;;;;1.40;1.10;;;;;;;;;;6157391;23;20178;-85
2022/11/02 11:55:37;;;;;;;0.87;0.87;;;;;;;;;;6146126;23;20178;-89
2022/11/02 11:58:22;;;;;;;0.50;0.50;;;;;;;;;;6162810;23;20182;-89
2022/11/02 12:01:05;;;;;;;0.40;0.40;;;;;;;;;;6163983;23;20233;-90
2022/11/02 12:09:47;;;;;;;1.70;0.87;;;;;;;;;;6133492;23;20179;-94
2022/11/02 12:12:26;;;;;;;0.87;0.77;;;;;;;;;;6130531;23;20179;-90
2022/11/02 12:15:06;;;;;;;1.20;1.03;;;;;;;;;;6125924;23;20183;-85
2022/11/02 12:17:40;;;;;;;2.00;1.13;;;;;;;;;;6127308;23;20180;-92
2022/11/02 12:20:21;;;;;;;1.77;0.87;;;;;;;;;;6127664;23;20196;-92
2022/11/02 12:22:57;;;;;;;3.83;1.20;;;;;;;;;;6128680;23;20180;-92
2022/11/02 12:25:37;;;;;;;4.97;2.10;;;;;;;;;;6128115;23;20221;-94
2022/11/02 12:28:15;;;;;;;1.07;0.90;;;;;;;;;;6126544;23;20184;-93
2022/11/02 12:30:51;;;;;;;0.40;0.40;;;;;;;;;;6129016;23;20236;-90
2022/11/02 12:33:28;;;;;;;1.13;0.90;;;;;;;;;;6126003;23;20293;-89
2022/11/02 12:36:10;;;;;;;4.90;1.83;;;;;;;;;;6126384;23;20182;-86
2022/11/02 12:39:06;;;;;;;1.03;1.03;;;;;;;;;;6155970;23;20171;-90
2022/11/02 12:41:55;;;;;;;2.60;1.27;;;;;;;;;;6110190;23;20218;-87
2022/11/02 12:44:40;;;;;;;4.43;1.23;;;;;;;;;;6128940;23;20193;-88
2022/11/02 12:47:18;;;;;;;4.33;1.50;;;;;;;;;;6128598;23;20189;-86
2022/11/02 12:49:50;;;;;;;3.73;1.17;;;;;;;;;;6130989;23;20210;-87
2022/11/02 12:52:25;;;;;;;2.77;1.37;;;;;;;;;;6131873;23;20174;-87
2022/11/02 12:55:06;;;;;;;1.97;1.30;;;;;;;;;;6130818;23;20266;-90
2022/11/02 12:57:38;;;;;;;5.90;1.53;;;;;;;;;;6131585;23;20176;-85
2022/11/02 13:00:09;;;;;;;3.47;1.13;;;;;;;;;;6157227;23;20182;-87
2022/11/02 13:02:45;;;;;;;2.03;1.23;;;;;;;;;;6128482;23;20203;-86
2022/11/02 13:05:17;;;;;;;3.97;1.47;;;;;;;;;;6138531;23;20211;-87
2022/11/02 13:07:51;;;;;;;3.90;1.93;;;;;;;;;;6157575;23;20207;-89
2022/11/02 13:10:21;;;;;;;2.70;1.27;;;;;;;;;;6158078;23;20178;-90
2022/11/02 13:12:52;;;;;;;10.10;2.70;;;;;;;;;;6183542;23;20180;-88
2022/11/02 13:15:23;;;;;;;1.77;1.57;;;;;;;;;;6155551;23;20184;-91
2022/11/02 13:17:59;;;;;;;7.23;2.43;;;;;;;;;;6158024;23;20206;-92
2022/11/02 13:20:37;;;;;;;6.70;2.10;;;;;;;;;;6156531;23;20184;-92
2022/11/02 13:23:16;;;;;;;7.73;3.00;;;;;;;;;;6158915;23;20239;-91
2022/11/02 13:25:58;;;;;;;7.87;1.87;;;;;;;;;;6159678;23;20181;-90
2022/11/02 13:28:31;;;;;;;4.00;1.67;;;;;;;;;;6158903;23;20180;-91
2022/11/02 13:31:05;;;;;;;6.97;2.30;;;;;;;;;;6159528;23;20181;-92
2022/11/02 13:33:45;;;;;;;8.17;2.63;;;;;;;;;;6160745;23;20280;-88
2022/11/02 13:36:14;;;;;;;12.90;3.20;;;;;;;;;;6159565;23;20246;-90
2022/11/02 13:38:46;;;;;;;4.63;1.63;;;;;;;;;;6158682;23;20245;-90
2022/11/02 13:41:20;;;;;;;2.53;0.97;;;;;;;;;;6160289;23;20175;-90
2022/11/02 13:43:54;;;;;;;10.93;2.57;;;;;;;;;;6160574;23;20188;-89
2022/11/02 13:46:35;;;;;;;9.63;2.77;;;;;;;;;;6159125;23;20196;-88
2022/11/02 13:49:16;;;;;;;6.93;2.20;;;;;;;;;;6181895;23;20176;-90
2022/11/02 13:51:58;;;;;;;21.93;4.43;;;;;;;;;;6155430;23;20175;-88
2022/11/02 13:54:33;;;;;;;9.47;3.23;;;;;;;;;;6154992;23;20181;-88
2022/11/02 13:57:06;;;;;;;8.07;4.50;;;;;;;;;;6154587;23;20174;-89
2022/11/02 14:00:05;;;;;;;12.80;4.17;;;;;;;;;;6182281;23;20179;-90
2022/11/02 14:03:05;;;;;;;4.13;2.47;;;;;;;;;;6158762;23;20206;-95
2022/11/02 14:05:47;;;;;;;9.80;4.23;;;;;;;;;;6181425;23;20257;-91
2022/11/02 14:08:31;;;;;;;10.00;3.97;;;;;;;;;;6164289;23;20176;-92
2022/11/02 14:11:09;;;;;;;10.73;3.77;;;;;;;;;;6155678;23;20186;-87
2022/11/02 14:14:01;;;;;;;8.77;5.00;;;;;;;;;;6183545;23;20183;-90
2022/11/02 14:16:46;;;;;;;14.93;4.03;;;;;;;;;;6180450;23;20182;-92
2022/11/02 14:19:22;;;;;;;7.57;3.97;;;;;;;;;;6157697;23;20204;-90
2022/11/02 14:22:13;;;;;;;7.83;4.07;;;;;;;;;;6153763;23;20195;-89
2022/11/02 14:25:09;;;;;;;11.10;2.90;;;;;;;;;;6153925;23;20184;-87
2022/11/02 14:27:38;;;;;;;9.50;3.33;;;;;;;;;;6154342;23;20183;-85
2022/11/02 14:30:31;;;;;;;12.77;3.50;;;;;;;;;;6154596;23;20247;-87
2022/11/02 14:33:13;;;;;;;10.97;5.30;;;;;;;;;;6150780;23;20209;-87
2022/11/02 14:35:48;;;;;;;10.80;4.30;;;;;;;;;;6180183;23;20183;-92
2022/11/02 14:38:34;;;;;;;8.93;4.03;;;;;;;;;;6180193;23;20183;-88
2022/11/02 14:41:08;;;;;;;15.97;4.60;;;;;;;;;;6159195;23;20193;-88
2022/11/02 14:43:49;;;;;;;10.30;2.00;;;;;;;;;;6156435;23;20281;-88
2022/11/02 14:46:25;;;;;;;9.43;3.57;;;;;;;;;;6183437;23;20167;-90
2022/11/02 14:49:00;;;;;;;10.57;3.10;;;;;;;;;;6157897;23;20266;-91
2022/11/02 14:51:30;;;;;;;12.40;4.23;;;;;;;;;;6157431;23;20175;-86
2022/11/02 14:54:03;;;;;;;8.37;2.63;;;;;;;;;;6157558;23;20176;-86
2022/11/02 14:56:51;;;;;;;7.67;3.07;;;;;;;;;;6157835;23;20179;-89
2022/11/02 14:59:21;;;;;;;10.27;2.80;;;;;;;;;;6155491;23;20179;-86
2022/11/02 15:01:52;;;;;;;10.67;4.03;;;;;;;;;;6155953;23;20183;-87
2022/11/02 15:04:22;;;;;;;10.73;4.00;;;;;;;;;;6157815;23;20200;-85
2022/11/02 15:06:53;;;;;;;7.57;3.77;;;;;;;;;;6155605;23;20212;-86
2022/11/02 15:09:40;;;;;;;11.77;5.23;;;;;;;;;;6157048;23;20180;-86
2022/11/02 15:12:23;;;;;;;11.80;4.77;;;;;;;;;;6157003;23;20263;-85
2022/11/02 15:14:55;;;;;;;13.30;4.13;;;;;;;;;;6157493;23;20214;-86
2022/11/02 15:17:45;;;;;;;9.70;4.93;;;;;;;;;;6155876;23;20203;-88
2022/11/02 15:20:28;;;;;;;11.03;5.10;;;;;;;;;;6156140;23;20179;-88
2022/11/02 15:23:13;;;;;;;11.17;4.73;;;;;;;;;;6180502;23;20198;-86
2022/11/02 15:25:58;;;;;;;10.30;4.77;;;;;;;;;;6157560;23;20442;-89
2022/11/02 15:28:29;;;;;;;12.13;4.97;;;;;;;;;;6157497;23;20198;-86
2022/11/02 15:30:59;;;;;;;9.17;4.10;;;;;;;;;;6180286;23;20175;-87
2022/11/02 15:33:35;;;;;;;13.20;4.20;;;;;;;;;;6155620;23;20175;-86
2022/11/02 15:36:08;;;;;;;9.33;3.07;;;;;;;;;;6156240;23;20179;-86
2022/11/02 15:38:37;;;;;;;13.13;5.20;;;;;;;;;;6156227;23;20179;-88
2022/11/02 15:41:17;;;;;;;10.50;3.60;;;;;;;;;;6155796;23;20262;-88
2022/11/02 15:44:02;;;;;;;12.57;5.23;;;;;;;;;;6155512;23;20199;-86
2022/11/02 15:46:47;;;;;;;9.73;4.30;;;;;;;;;;6155697;23;20190;-88